createdAt,value
2022-08-03T00:08:58.426Z,0.00
2022-08-03T00:23:59.575Z,0.00
2022-08-03T00:39:00.802Z,0.00
2022-08-03T00:54:02.023Z,0.00
2022-08-03T01:09:03.148Z,0.00
2022-08-03T01:24:04.418Z,0.00
2022-08-03T01:39:05.591Z,0.00
2022-08-03T01:54:06.154Z,0.00
2022-08-03T02:09:06.895Z,0.00
2022-08-03T02:24:08.009Z,0.00
2022-08-03T02:39:09.316Z,0.00
2022-08-03T02:54:10.440Z,4.00
2022-08-03T03:09:11.550Z,20.00
2022-08-03T03:24:12.684Z,116.00
2022-08-03T03:39:15.200Z,372.00
2022-08-03T03:54:17.654Z,856.00
2022-08-03T04:09:19.161Z,1456.00
2022-08-03T04:24:19.897Z,2264.00
2022-08-03T04:39:21.609Z,8852.00
2022-08-03T04:54:22.734Z,3628.00
2022-08-03T05:09:50.129Z,4248.00
2022-08-03T05:24:29.691Z,4828.00
2022-08-03T05:39:30.405Z,5184.00
2022-08-03T05:54:56.326Z,5408.00
2022-08-03T06:10:35.409Z,5608.00
2022-08-03T06:24:53.664Z,5732.00
2022-08-03T06:39:52.398Z,5776.00
2022-08-03T06:54:53.149Z,5872.00
2022-08-03T07:09:57.640Z,6052.00
2022-08-03T07:24:58.460Z,6168.00
2022-08-03T07:39:59.584Z,6264.00
2022-08-03T07:55:00.739Z,6500.00
2022-08-03T08:10:01.941Z,6712.00
2022-08-03T08:25:03.036Z,7244.00
2022-08-03T08:40:03.758Z,7992.00
2022-08-03T08:55:03.844Z,8240.00
2022-08-03T09:10:12.495Z,9376.00
2022-08-03T09:25:25.233Z,12264.00
2022-08-03T09:40:16.920Z,16096.00
2022-08-03T09:56:32.737Z,23936.00
2022-08-03T10:10:30.403Z,23840.00
2022-08-03T10:25:33.177Z,9508.00
2022-08-03T10:40:51.839Z,10992.00
2022-08-03T10:55:40.757Z,41728.00
2022-08-03T11:10:41.976Z,47712.00
2022-08-03T11:25:55.119Z,53088.00
2022-08-03T11:40:49.672Z,63648.00
2022-08-03T11:55:50.929Z,62976.00
2022-08-03T12:10:52.004Z,64576.00
2022-08-03T12:25:53.232Z,70496.00
2022-08-03T12:40:56.370Z,63776.00
2022-08-03T12:56:05.903Z,56608.00
2022-08-03T13:11:03.767Z,56224.00
2022-08-03T13:26:04.973Z,69184.00
2022-08-03T13:41:06.491Z,60928.00
2022-08-03T13:56:06.947Z,71360.00
2022-08-03T14:11:08.007Z,65504.00
2022-08-03T14:26:09.705Z,65184.00
2022-08-03T14:41:12.334Z,70720.00
2022-08-03T14:56:15.542Z,21792.00
2022-08-03T15:11:16.263Z,23968.00
2022-08-03T15:26:32.700Z,31456.00
2022-08-03T15:41:23.657Z,9920.00
2022-08-03T15:56:24.795Z,6948.00
2022-08-03T16:11:28.010Z,8532.00
2022-08-03T16:26:28.723Z,6192.00
2022-08-03T16:41:53.494Z,4676.00
2022-08-03T16:56:39.051Z,3312.00
2022-08-03T17:11:46.861Z,2484.00
2022-08-03T17:26:49.956Z,3016.00
2022-08-03T17:41:51.109Z,2932.00
2022-08-03T17:56:52.348Z,1908.00
2022-08-03T18:11:53.500Z,1056.00
2022-08-03T18:26:55.683Z,744.00
2022-08-03T18:41:57.931Z,380.00
2022-08-03T18:57:00.001Z,152.00
2022-08-03T19:12:11.237Z,32.00
2022-08-03T19:27:06.757Z,4.00
2022-08-03T19:42:20.073Z,0.00
2022-08-03T19:57:18.728Z,4.00
2022-08-03T20:12:20.402Z,0.00
2022-08-03T20:27:30.242Z,0.00
2022-08-03T20:42:31.027Z,0.00
2022-08-03T20:57:33.161Z,0.00
2022-08-03T21:12:33.751Z,0.00
2022-08-03T21:27:34.972Z,0.00
2022-08-03T21:42:36.151Z,0.00
2022-08-03T21:57:38.420Z,0.00
2022-08-03T22:12:40.789Z,0.00
2022-08-03T22:27:41.402Z,0.00
2022-08-03T22:42:41.661Z,0.00
2022-08-03T22:57:41.987Z,0.00
2022-08-03T23:12:42.563Z,0.00
2022-08-03T23:27:43.816Z,0.00
2022-08-03T23:42:45.011Z,0.00
2022-08-03T23:57:46.265Z,0.00
